Time;durP1;ratioP1;P1;durP2;ratioP2;P2;SDS_P1;SDS_P2;PMS_P1;PMS_P2;Temp;Humidity;BMP_temperature;BMP_pressure;BME280_temperature;BME280_humidity;BME280_pressure;Samples;Min_cycle;Max_cycle;Signal;HPM_P1;HPM_P2
2023/09/29 00:00:35;;;;;;;29.83;4.05;;;19.40;90.70;;;;;;5054956;28;20081;-72
2023/09/29 00:03:01;;;;;;;19.73;4.40;;;19.30;90.70;;;;;;5064184;28;20131;-73
2023/09/29 00:05:27;;;;;;;33.63;5.05;;;19.30;90.70;;;;;;5046309;28;20644;-72
2023/09/29 00:07:55;;;;;;;24.67;4.55;;;19.40;90.60;;;;;;5066429;28;20681;-73
2023/09/29 00:10:21;;;;;;;24.00;4.45;;;19.40;90.50;;;;;;5057676;28;20032;-73
2023/09/29 00:12:49;;;;;;;28.10;4.18;;;19.40;90.40;;;;;;5062506;28;20495;-73
2023/09/29 00:15:17;;;;;;;25.83;5.03;;;19.40;90.30;;;;;;5056206;28;20045;-73
2023/09/29 00:17:42;;;;;;;21.10;3.75;;;19.40;90.60;;;;;;5068824;28;20051;-73
2023/09/29 00:20:17;;;;;;;26.10;5.18;;;19.40;90.70;;;;;;5051351;28;20432;-73
2023/09/29 00:22:42;;;;;;;25.25;4.15;;;19.20;91.20;;;;;;5068526;28;20032;-72
2023/09/29 00:25:08;;;;;;;27.45;4.55;;;19.10;91.80;;;;;;5054630;28;20073;-72
2023/09/29 00:27:34;;;;;;;25.60;4.70;;;19.10;91.90;;;;;;5072547;28;20079;-72
2023/09/29 00:30:00;;;;;;;31.85;4.60;;;19.00;92.00;;;;;;5062454;28;20200;-73
2023/09/29 00:32:26;;;;;;;32.05;4.68;;;19.00;92.10;;;;;;5067901;28;20032;-72
2023/09/29 00:34:52;;;;;;;25.73;4.63;;;18.90;92.00;;;;;;5060868;28;20028;-73
2023/09/29 00:37:17;;;;;;;28.00;5.07;;;18.90;92.10;;;;;;5067956;28;20024;-72
2023/09/29 00:39:43;;;;;;;30.02;4.85;;;18.90;92.30;;;;;;5065305;28;20175;-72
2023/09/29 00:42:09;;;;;;;26.60;4.43;;;18.90;92.40;;;;;;5062189;28;20041;-72
2023/09/29 00:44:35;;;;;;;26.88;5.25;;;18.80;92.40;;;;;;5070054;28;20039;-72
2023/09/29 00:47:05;;;;;;;30.83;4.63;;;18.90;92.30;;;;;;5057598;28;20039;-73
2023/09/29 00:49:30;;;;;;;29.83;4.85;;;18.90;92.10;;;;;;5072064;28;20552;-72
2023/09/29 00:51:59;;;;;;;21.02;5.40;;;18.90;92.10;;;;;;5055839;28;20036;-73
2023/09/29 00:54:28;;;;;;;28.23;4.05;;;19.00;92.00;;;;;;5071945;28;20342;-73
2023/09/29 00:56:55;;;;;;;24.92;4.88;;;19.00;91.90;;;;;;5056665;28;20021;-72
2023/09/29 00:59:24;;;;;;;24.90;5.75;;;19.10;91.80;;;;;;5068504;28;20041;-72
2023/09/29 01:01:50;;;;;;;27.63;4.47;;;19.10;91.70;;;;;;5058549;28;20060;-72
2023/09/29 01:04:16;;;;;;;34.67;5.00;;;19.10;91.50;;;;;;5069513;28;20448;-72
2023/09/29 01:06:41;;;;;;;18.00;4.60;;;19.20;91.50;;;;;;5051434;28;20027;-72
2023/09/29 01:09:09;;;;;;;27.48;4.28;;;19.20;91.40;;;;;;5071885;28;20020;-72
2023/09/29 01:11:43;;;;;;;23.30;3.72;;;19.20;91.40;;;;;;5059174;28;20043;-72
2023/09/29 01:14:11;;;;;;;27.00;4.18;;;19.20;91.20;;;;;;5070053;28;20020;-72
2023/09/29 01:16:38;;;;;;;27.73;3.88;;;19.20;91.20;;;;;;5059063;28;20170;-73
2023/09/29 01:19:11;;;;;;;18.77;3.72;;;19.20;91.30;;;;;;5065027;28;20052;-71
2023/09/29 01:21:38;;;;;;;20.98;4.22;;;19.20;91.30;;;;;;5058215;28;20071;-72
2023/09/29 01:24:05;;;;;;;18.55;4.38;;;19.20;91.30;;;;;;5070129;28;20550;-73
2023/09/29 01:26:31;;;;;;;30.08;6.03;;;19.20;91.30;;;;;;5057472;28;20038;-73
2023/09/29 01:28:58;;;;;;;24.85;4.53;;;19.20;91.20;;;;;;5065627;28;20024;-72
2023/09/29 01:31:23;;;;;;;25.38;4.43;;;19.30;91.10;;;;;;5070549;28;20028;-73
2023/09/29 01:33:49;;;;;;;17.38;4.45;;;19.30;91.20;;;;;;5054624;28;20055;-72
2023/09/29 01:36:15;;;;;;;21.38;4.35;;;19.30;91.20;;;;;;5069405;28;20040;-73
2023/09/29 01:38:40;;;;;;;24.17;5.10;;;19.30;91.10;;;;;;5055434;28;20036;-73
2023/09/29 01:41:06;;;;;;;26.70;5.30;;;19.20;92.00;;;;;;5071383;28;20115;-73
2023/09/29 01:43:32;;;;;;;26.10;5.43;;;18.90;93.10;;;;;;5060620;28;20056;-73
2023/09/29 01:46:00;;;;;;;30.83;5.57;;;18.70;93.70;;;;;;5067576;28;20444;-72
2023/09/29 01:48:26;;;;;;;33.40;5.72;;;18.60;94.20;;;;;;5054729;28;20523;-73
2023/09/29 01:50:51;;;;;;;27.10;4.80;;;18.60;94.30;;;;;;5071588;28;20040;-73
2023/09/29 01:53:17;;;;;;;42.00;5.28;;;18.60;94.10;;;;;;5052710;28;20381;-73
2023/09/29 01:55:42;;;;;;;49.83;7.28;;;18.70;94.00;;;;;;5070021;28;20025;-73
2023/09/29 01:58:09;;;;;;;37.47;6.00;;;18.70;93.80;;;;;;5058364;28;20138;-73
2023/09/29 02:00:35;;;;;;;30.98;5.13;;;18.80;93.70;;;;;;5067528;28;20140;-74
2023/09/29 02:03:01;;;;;;;28.42;4.72;;;18.80;93.60;;;;;;5044940;28;20066;-73
2023/09/29 02:05:27;;;;;;;31.95;5.55;;;18.80;93.90;;;;;;5063474;28;20088;-73
2023/09/29 02:07:53;;;;;;;47.97;6.25;;;18.70;94.00;;;;;;5060204;28;20036;-73
2023/09/29 02:10:20;;;;;;;30.15;5.68;;;18.70;94.20;;;;;;5059131;28;20037;-73
2023/09/29 02:12:53;;;;;;;42.05;5.55;;;18.70;94.50;;;;;;5057879;28;20279;-73
2023/09/29 02:15:19;;;;;;;43.60;5.80;;;18.60;94.90;;;;;;5052372;28;20032;-73
2023/09/29 02:17:47;;;;;;;36.80;5.97;;;18.60;95.20;;;;;;5064849;28;20048;-73
2023/09/29 02:20:30;;;;;;;39.13;6.20;;;18.50;95.30;;;;;;5047161;28;20071;-73
2023/09/29 02:22:58;;;;;;;32.17;6.40;;;18.50;95.30;;;;;;5067161;28;20028;-73
2023/09/29 02:25:27;;;;;;;35.08;6.40;;;18.50;95.30;;;;;;5055485;28;20424;-73
2023/09/29 02:27:54;;;;;;;41.50;5.75;;;18.50;95.30;;;;;;5066207;28;20032;-73
2023/09/29 02:30:20;;;;;;;31.90;5.45;;;18.50;95.40;;;;;;5054190;28;20051;-73
2023/09/29 02:32:46;;;;;;;26.83;4.53;;;18.50;95.40;;;;;;5061961;28;20055;-73
2023/09/29 02:35:12;;;;;;;37.60;5.38;;;18.50;95.40;;;;;;5056048;28;20032;-73
2023/09/29 02:37:38;;;;;;;31.48;5.00;;;18.60;95.40;;;;;;5069451;28;20121;-72
2023/09/29 02:40:07;;;;;;;26.88;4.30;;;18.50;95.40;;;;;;5051626;28;20533;-72
2023/09/29 02:42:33;;;;;;;39.35;5.43;;;18.50;95.30;;;;;;5069294;28;20783;-74
2023/09/29 02:44:58;;;;;;;34.83;4.80;;;18.50;95.40;;;;;;5059986;28;20107;-72
2023/09/29 02:47:25;;;;;;;22.45;3.70;;;18.50;95.20;;;;;;5064521;28;20073;-72
2023/09/29 02:49:50;;;;;;;22.00;3.97;;;18.60;95.20;;;;;;5057830;28;20945;-75
2023/09/29 02:52:16;;;;;;;25.45;4.05;;;18.50;95.10;;;;;;5067223;28;21173;-72
2023/09/29 02:54:42;;;;;;;37.97;5.47;;;18.50;95.10;;;;;;5059215;28;20040;-72
2023/09/29 02:57:07;;;;;;;34.17;4.38;;;18.50;95.20;;;;;;5069185;28;20116;-73
2023/09/29 02:59:33;;;;;;;30.98;4.38;;;18.50;95.30;;;;;;5062571;28;20467;-72
2023/09/29 03:02:00;;;;;;;27.13;3.53;;;18.50;95.40;;;;;;5061837;28;20056;-72
2023/09/29 03:04:26;;;;;;;26.92;3.78;;;18.50;95.20;;;;;;5073921;28;20032;-73
2023/09/29 03:06:52;;;;;;;21.05;3.92;;;18.50;95.20;;;;;;5056135;28;20132;-73
2023/09/29 03:09:19;;;;;;;26.25;3.47;;;18.50;95.20;;;;;;5070812;28;20028;-72
2023/09/29 03:11:45;;;;;;;22.92;3.75;;;18.50;95.10;;;;;;5053927;28;20082;-72
2023/09/29 03:14:11;;;;;;;23.10;3.05;;;18.50;95.30;;;;;;5063239;28;20033;-72
2023/09/29 03:16:37;;;;;;;26.75;2.97;;;18.50;94.80;;;;;;5058864;28;20456;-72
2023/09/29 03:19:03;;;;;;;40.13;3.45;;;18.50;94.80;;;;;;5064247;28;20048;-72
2023/09/29 03:21:29;;;;;;;29.35;4.32;;;18.40;94.90;;;;;;5056896;28;20057;-72
2023/09/29 03:23:54;;;;;;;24.15;2.80;;;18.40;95.10;;;;;;5067035;28;20602;-72
2023/09/29 03:26:22;;;;;;;30.00;3.22;;;18.40;95.20;;;;;;5050317;28;20031;-72
2023/09/29 03:28:50;;;;;;;18.15;2.47;;;18.30;95.40;;;;;;5069343;28;20439;-71
2023/09/29 03:31:18;;;;;;;25.25;2.63;;;18.30;95.50;;;;;;5058248;28;20043;-73
2023/09/29 03:33:44;;;;;;;19.70;2.80;;;18.20;95.70;;;;;;5061105;28;20032;-72
2023/09/29 03:36:10;;;;;;;20.98;2.80;;;18.20;95.70;;;;;;5062317;28;20896;-72
2023/09/29 03:38:37;;;;;;;18.77;2.88;;;18.20;95.90;;;;;;5071079;28;20063;-72
2023/09/29 03:41:06;;;;;;;17.77;2.25;;;18.10;95.90;;;;;;5054160;28;20036;-72
2023/09/29 03:43:31;;;;;;;22.65;2.53;;;18.10;95.90;;;;;;5065048;28;20441;-71
2023/09/29 03:45:57;;;;;;;16.40;2.20;;;18.10;95.70;;;;;;5065434;28;20098;-72
2023/09/29 03:48:25;;;;;;;12.70;1.90;;;18.10;95.70;;;;;;5054763;28;20042;-71
2023/09/29 03:50:50;;;;;;;16.63;2.25;;;18.20;95.60;;;;;;5068364;28;20764;-71
2023/09/29 03:53:17;;;;;;;21.25;1.95;;;18.10;95.60;;;;;;5049550;28;20042;-71
2023/09/29 03:55:44;;;;;;;12.48;1.83;;;18.20;95.70;;;;;;5069325;28;20123;-73
2023/09/29 03:58:10;;;;;;;16.73;2.70;;;18.10;95.60;;;;;;5056182;28;20290;-73
2023/09/29 04:00:36;;;;;;;10.90;2.00;;;18.10;95.70;;;;;;5065794;28;20024;-74
2023/09/29 04:03:01;;;;;;;17.45;2.33;;;18.10;95.70;;;;;;5055790;28;21673;-73
2023/09/29 04:05:27;;;;;;;22.40;2.67;;;18.10;95.60;;;;;;5061965;28;20445;-73
2023/09/29 04:07:53;;;;;;;16.85;2.38;;;18.10;95.60;;;;;;5052085;28;20035;-73
2023/09/29 04:10:20;;;;;;;17.88;2.10;;;18.10;95.50;;;;;;5070180;28;20054;-73
2023/09/29 04:12:47;;;;;;;20.83;2.72;;;18.20;95.50;;;;;;5047654;28;20089;-73
2023/09/29 04:15:13;;;;;;;18.35;2.28;;;18.20;95.40;;;;;;5066668;28;20025;-73
2023/09/29 04:17:39;;;;;;;12.32;1.95;;;18.20;95.30;;;;;;5058276;28;20044;-73
2023/09/29 04:20:06;;;;;;;20.42;2.58;;;18.20;95.30;;;;;;5064753;28;20248;-73
2023/09/29 04:22:33;;;;;;;16.08;2.28;;;18.20;95.30;;;;;;5058161;28;20032;-73
2023/09/29 04:24:59;;;;;;;18.40;2.15;;;18.20;95.30;;;;;;5073106;28;20024;-73
2023/09/29 04:27:24;;;;;;;12.85;1.88;;;18.30;95.40;;;;;;5069567;28;20039;-73
2023/09/29 04:29:52;;;;;;;13.85;2.00;;;18.20;95.30;;;;;;5060311;28;21349;-73
2023/09/29 04:32:18;;;;;;;12.25;2.10;;;18.20;95.40;;;;;;5069017;28;20036;-73
2023/09/29 04:34:44;;;;;;;17.95;2.78;;;18.20;95.30;;;;;;5060264;28;20046;-72
2023/09/29 04:37:09;;;;;;;6.97;2.22;;;18.20;95.30;;;;;;5080016;28;20043;-72
2023/09/29 04:39:35;;;;;;;10.82;2.00;;;18.10;95.40;;;;;;5061217;28;20060;-73
2023/09/29 04:42:03;;;;;;;10.25;2.30;;;18.20;95.50;;;;;;5074089;28;20035;-71
2023/09/29 04:44:28;;;;;;;2.50;0.50;;;18.10;95.60;;;;;;5061229;28;20027;-70
2023/09/29 04:46:54;;;;;;;0.50;0.22;;;17.90;93.90;;;;;;5070008;28;20029;-69
2023/09/29 04:49:20;;;;;;;0.00;0.00;;;17.60;94.10;;;;;;5071918;28;20346;-71
2023/09/29 04:51:46;;;;;;;1.27;0.10;;;17.40;94.30;;;;;;5086786;28;20040;-71
2023/09/29 04:54:11;;;;;;;0.60;0.20;;;17.10;94.60;;;;;;5056670;28;20129;-71
2023/09/29 04:56:37;;;;;;;0.43;0.20;;;16.90;94.90;;;;;;5070874;28;20496;-71
2023/09/29 04:59:03;;;;;;;4.78;0.20;;;16.80;95.30;;;;;;5060222;28;20067;-71
2023/09/29 05:01:28;;;;;;;0.60;0.30;;;16.80;95.60;;;;;;5070141;28;20107;-72
2023/09/29 05:03:54;;;;;;;0.30;0.20;;;16.70;95.80;;;;;;5059486;28;20240;-72
2023/09/29 05:06:23;;;;;;;0.20;0.10;;;16.70;95.90;;;;;;5072649;28;20516;-72
2023/09/29 05:08:49;;;;;;;2.22;0.20;;;16.60;95.80;;;;;;5070816;28;20041;-71
2023/09/29 05:11:24;;;;;;;1.42;0.20;;;16.60;95.70;;;;;;5061349;28;20087;-72
2023/09/29 05:13:51;;;;;;;1.13;0.30;;;16.60;95.80;;;;;;5063018;28;20075;-72
2023/09/29 05:16:17;;;;;;;0.22;0.20;;;16.60;95.70;;;;;;5058991;28;20297;-72
2023/09/29 05:18:43;;;;;;;1.35;0.28;;;16.60;95.70;;;;;;5070334;28;20055;-72
2023/09/29 05:21:10;;;;;;;3.28;0.30;;;16.60;95.60;;;;;;5055973;28;20047;-72
2023/09/29 05:23:37;;;;;;;1.42;0.20;;;16.60;95.50;;;;;;5065374;28;20475;-72
2023/09/29 05:26:05;;;;;;;0.30;0.13;;;16.60;95.60;;;;;;5054571;28;20020;-72
2023/09/29 05:28:31;;;;;;;0.38;0.30;;;16.60;95.50;;;;;;5069903;28;20035;-72
2023/09/29 05:30:57;;;;;;;1.50;0.30;;;16.60;95.50;;;;;;5060012;28;20492;-72
2023/09/29 05:33:23;;;;;;;0.30;0.30;;;16.50;95.60;;;;;;5068267;28;20089;-72
2023/09/29 05:35:49;;;;;;;0.50;0.30;;;16.50;95.70;;;;;;5059498;28;20044;-72
2023/09/29 05:38:15;;;;;;;3.30;0.40;;;16.50;95.50;;;;;;5073479;28;20054;-72
2023/09/29 05:40:41;;;;;;;1.20;0.30;;;16.50;95.60;;;;;;5052360;28;20032;-72
2023/09/29 05:43:09;;;;;;;0.17;0.17;;;16.50;95.50;;;;;;5068081;28;20025;-72
2023/09/29 05:45:37;;;;;;;1.17;0.35;;;16.60;95.50;;;;;;5058910;28;20024;-72
2023/09/29 05:48:03;;;;;;;1.65;0.70;;;16.60;95.30;;;;;;5066143;28;20033;-72
2023/09/29 05:50:29;;;;;;;3.42;0.55;;;16.60;95.10;;;;;;5053264;28;20372;-72
2023/09/29 05:52:56;;;;;;;1.33;0.50;;;16.60;94.80;;;;;;5068616;28;20036;-72
2023/09/29 05:55:22;;;;;;;1.20;0.60;;;16.60;94.50;;;;;;5065181;28;20089;-72
2023/09/29 05:57:48;;;;;;;1.95;0.75;;;16.60;94.10;;;;;;5062363;28;20062;-72
2023/09/29 06:00:14;;;;;;;1.15;0.70;;;16.60;93.90;;;;;;5063403;28;20171;-72
2023/09/29 06:02:40;;;;;;;0.65;0.60;;;16.60;93.80;;;;;;5058611;28;20032;-72
2023/09/29 06:05:07;;;;;;;2.65;0.80;;;16.50;93.70;;;;;;5061323;28;20450;-72
2023/09/29 06:07:32;;;;;;;3.22;0.88;;;16.40;93.90;;;;;;5053271;28;20141;-72
2023/09/29 06:09:58;;;;;;;1.33;0.80;;;16.40;93.90;;;;;;5070860;28;20059;-72
2023/09/29 06:12:24;;;;;;;2.90;0.82;;;16.30;94.10;;;;;;5042026;28;20036;-72
2023/09/29 06:14:49;;;;;;;1.75;1.00;;;16.20;94.30;;;;;;5062007;28;20067;-72
2023/09/29 06:17:15;;;;;;;3.30;0.95;;;16.10;94.30;;;;;;5059142;28;20147;-72
2023/09/29 06:19:41;;;;;;;2.05;1.05;;;16.10;94.50;;;;;;5062398;28;20139;-72
2023/09/29 06:22:07;;;;;;;1.52;0.70;;;16.10;94.60;;;;;;5053144;28;20106;-73
2023/09/29 06:24:33;;;;;;;4.20;1.33;;;16.00;94.50;;;;;;5065455;28;20415;-73
2023/09/29 06:26:59;;;;;;;4.13;1.15;;;16.00;94.50;;;;;;5054156;28;20028;-72
2023/09/29 06:29:24;;;;;;;3.70;1.05;;;15.90;94.20;;;;;;5068411;28;20345;-73
2023/09/29 06:31:50;;;;;;;2.70;0.98;;;15.90;93.90;;;;;;5050989;28;20035;-73
2023/09/29 06:34:16;;;;;;;4.43;1.25;;;15.90;93.60;;;;;;5067353;28;20051;-73
2023/09/29 06:36:43;;;;;;;2.97;1.00;;;15.90;93.80;;;;;;5071993;28;20029;-72
2023/09/29 06:39:09;;;;;;;2.92;1.30;;;15.80;93.70;;;;;;5061578;28;20044;-72
2023/09/29 06:41:34;;;;;;;2.40;1.00;;;15.80;93.80;;;;;;5060779;28;20050;-72
2023/09/29 06:44:00;;;;;;;3.55;1.30;;;15.80;93.70;;;;;;5050457;28;20383;-72
2023/09/29 06:46:26;;;;;;;2.25;0.88;;;15.80;93.60;;;;;;5062176;28;20039;-72
2023/09/29 06:48:52;;;;;;;4.97;1.20;;;15.80;93.90;;;;;;5041722;28;20617;-72
2023/09/29 06:51:18;;;;;;;1.80;1.17;;;15.80;94.10;;;;;;5066331;28;20399;-72
2023/09/29 06:53:44;;;;;;;2.55;1.15;;;15.80;93.90;;;;;;5050124;28;20028;-72
2023/09/29 06:56:10;;;;;;;5.13;1.17;;;15.80;94.10;;;;;;5062928;28;20431;-75
2023/09/29 06:58:36;;;;;;;1.88;0.98;;;15.90;94.30;;;;;;5056347;28;20036;-71
2023/09/29 07:01:02;;;;;;;2.92;1.25;;;16.00;93.90;;;;;;5055880;28;20097;-72
2023/09/29 07:03:30;;;;;;;2.70;0.75;;;16.10;93.30;;;;;;5048239;28;20500;-73
2023/09/29 07:05:57;;;;;;;1.10;0.88;;;16.10;93.20;;;;;;5055081;28;20120;-73
2023/09/29 07:08:23;;;;;;;2.78;0.80;;;16.10;93.00;;;;;;5043250;28;20379;-74
2023/09/29 07:10:48;;;;;;;2.45;1.10;;;16.00;93.00;;;;;;5059663;28;20029;-73
2023/09/29 07:13:14;;;;;;;2.97;0.88;;;16.00;93.20;;;;;;5038698;28;20431;-74
2023/09/29 07:15:40;;;;;;;2.67;1.10;;;16.00;93.20;;;;;;5053208;28;20043;-73
2023/09/29 07:18:10;;;;;;;4.43;1.15;;;16.10;92.80;;;;;;5054175;28;20043;-74
2023/09/29 07:20:37;;;;;;;2.38;0.90;;;16.30;93.10;;;;;;5035949;28;20036;-74
2023/09/29 07:23:03;;;;;;;3.30;1.00;;;16.50;92.70;;;;;;5045410;28;20028;-74
2023/09/29 07:25:29;;;;;;;3.08;1.10;;;16.60;92.00;;;;;;5047329;28;20032;-73
2023/09/29 07:27:55;;;;;;;1.55;0.75;;;16.70;91.50;;;;;;5046221;28;20029;-74
2023/09/29 07:30:21;;;;;;;2.97;0.90;;;16.70;91.70;;;;;;5044101;28;20313;-74
2023/09/29 07:32:46;;;;;;;1.48;0.80;;;16.90;91.70;;;;;;5054386;28;20107;-71
2023/09/29 07:35:12;;;;;;;1.17;0.90;;;16.90;90.80;;;;;;5039477;28;20115;-72
2023/09/29 07:37:38;;;;;;;1.80;1.08;;;16.90;90.80;;;;;;5050017;28;20028;-74
2023/09/29 07:40:09;;;;;;;3.42;1.08;;;16.90;90.70;;;;;;5039441;28;20046;-73
2023/09/29 07:42:35;;;;;;;2.03;1.30;;;16.90;90.90;;;;;;5047118;28;20036;-75
2023/09/29 07:45:01;;;;;;;1.83;1.20;;;17.00;90.60;;;;;;5043016;28;20028;-74
2023/09/29 07:47:27;;;;;;;2.97;1.30;;;17.00;90.50;;;;;;5037451;28;20067;-72
2023/09/29 07:49:52;;;;;;;1.30;0.60;;;17.00;90.40;;;;;;5027502;28;20058;-75
2023/09/29 07:52:18;;;;;;;2.33;1.20;;;17.10;89.20;;;;;;5048737;28;20094;-71
2023/09/29 07:54:44;;;;;;;3.08;1.05;;;17.10;88.10;;;;;;5026333;28;20040;-74
2023/09/29 07:57:10;;;;;;;2.85;1.33;;;17.10;89.60;;;;;;5046359;28;20210;-72
2023/09/29 07:59:35;;;;;;;2.92;0.90;;;17.20;89.90;;;;;;5035673;28;20170;-71
2023/09/29 08:02:01;;;;;;;2.72;1.00;;;17.30;87.80;;;;;;5043132;28;20067;-72
2023/09/29 08:04:26;;;;;;;3.10;1.30;;;17.30;89.00;;;;;;5047156;28;20032;-72
2023/09/29 08:06:52;;;;;;;1.92;0.82;;;17.30;86.70;;;;;;5036211;28;20543;-72
2023/09/29 08:09:18;;;;;;;3.00;1.25;;;17.40;87.90;;;;;;5043517;28;20504;-72
2023/09/29 08:11:45;;;;;;;3.03;0.93;;;17.50;87.10;;;;;;5032066;28;20077;-72
2023/09/29 08:14:11;;;;;;;2.55;0.85;;;17.60;86.70;;;;;;5042784;28;20085;-72
2023/09/29 08:16:37;;;;;;;2.03;0.80;;;17.60;86.00;;;;;;5036154;28;20033;-72
2023/09/29 08:19:03;;;;;;;2.55;1.10;;;17.60;85.90;;;;;;5053746;28;20656;-72
2023/09/29 08:21:32;;;;;;;1.77;0.88;;;17.70;85.20;;;;;;5033245;28;20408;-72
2023/09/29 08:23:59;;;;;;;;;;;17.70;84.70;;;;;;5050603;28;20713;-72
2023/09/29 08:26:25;;;;;;;2.53;1.25;;;17.70;84.30;;;;;;5038071;28;19915;-72
2023/09/29 08:28:50;;;;;;;3.00;1.25;;;17.80;83.60;;;;;;5043780;28;20025;-73
2023/09/29 08:31:17;;;;;;;2.35;1.08;;;17.80;84.00;;;;;;5034384;28;20039;-73
2023/09/29 08:33:43;;;;;;;2.88;1.17;;;17.90;82.90;;;;;;5044113;28;20467;-73
2023/09/29 08:36:09;;;;;;;2.28;0.98;;;18.00;83.20;;;;;;5036729;28;20056;-73
2023/09/29 08:38:35;;;;;;;6.63;1.02;;;18.20;84.30;;;;;;5051704;28;20056;-72
2023/09/29 08:41:03;;;;;;;3.22;1.20;;;18.40;82.00;;;;;;5035752;28;20408;-73
2023/09/29 08:43:30;;;;;;;5.07;1.17;;;18.50;82.40;;;;;;5049974;28;20511;-72
2023/09/29 08:45:58;;;;;;;3.05;1.20;;;18.50;80.70;;;;;;5053510;28;20954;-73
2023/09/29 08:48:27;;;;;;;4.72;1.38;;;18.30;81.10;;;;;;5033711;28;20488;-72
2023/09/29 08:50:55;;;;;;;6.07;1.50;;;18.40;82.10;;;;;;5051815;28;20471;-73
2023/09/29 08:53:24;;;;;;;5.32;1.45;;;18.70;79.70;;;;;;5040227;28;20039;-72
2023/09/29 08:55:52;;;;;;;2.30;1.37;;;18.70;79.00;;;;;;5054335;28;20036;-72
2023/09/29 08:58:18;;;;;;;2.40;1.50;;;18.60;79.60;;;;;;5044997;28;20273;-72
2023/09/29 09:00:44;;;;;;;5.18;1.33;;;18.40;78.60;;;;;;5048134;28;20463;-72
2023/09/29 09:03:10;;;;;;;3.95;1.17;;;18.40;79.60;;;;;;5036823;28;20555;-73
2023/09/29 09:05:35;;;;;;;2.42;1.40;;;18.50;77.90;;;;;;5054425;28;21304;-73
2023/09/29 09:08:01;;;;;;;4.05;1.50;;;18.80;76.00;;;;;;5035520;28;20043;-73
2023/09/29 09:10:32;;;;;;;4.50;1.60;;;18.80;75.10;;;;;;5054337;28;20038;-72
2023/09/29 09:12:59;;;;;;;6.07;1.55;;;19.00;74.20;;;;;;5038724;28;20330;-73
2023/09/29 09:15:25;;;;;;;6.00;1.55;;;19.20;74.10;;;;;;5051463;28;20054;-73
2023/09/29 09:17:51;;;;;;;3.13;1.50;;;19.40;73.00;;;;;;5042716;28;20805;-73
2023/09/29 09:20:17;;;;;;;4.20;1.88;;;19.40;71.00;;;;;;5051201;28;20048;-74
2023/09/29 09:22:44;;;;;;;4.63;1.80;;;19.30;71.80;;;;;;5035829;28;20032;-74
2023/09/29 09:25:12;;;;;;;6.03;2.20;;;19.20;69.50;;;;;;5053200;28;20527;-73
2023/09/29 09:27:40;;;;;;;4.55;1.83;;;19.30;70.20;;;;;;5036161;28;20103;-73
2023/09/29 09:30:18;;;;;;;6.38;1.70;;;19.10;65.60;;;;;;5049012;28;20524;-73
2023/09/29 09:32:43;;;;;;;7.18;2.15;;;18.90;64.40;;;;;;5040718;28;20708;-72
2023/09/29 09:35:10;;;;;;;4.13;1.90;;;18.60;66.30;;;;;;5048971;28;20063;-72
2023/09/29 09:37:35;;;;;;;3.60;1.60;;;18.50;66.60;;;;;;5047449;28;20029;-72
2023/09/29 09:40:05;;;;;;;4.13;1.77;;;18.40;66.40;;;;;;5044992;28;20032;-72
2023/09/29 09:42:30;;;;;;;;;;;18.20;69.20;;;;;;5060300;28;20071;-75
2023/09/29 09:44:58;;;;;;;4.43;1.92;;;18.20;71.50;;;;;;5042743;28;20010;-73
2023/09/29 09:47:25;;;;;;;5.68;1.63;;;18.20;70.60;;;;;;5055064;28;20109;-73
2023/09/29 09:49:55;;;;;;;4.93;1.70;;;18.30;70.90;;;;;;5045164;28;21330;-73
2023/09/29 09:52:26;;;;;;;4.25;1.65;;;18.50;71.90;;;;;;5061188;28;20806;-73
2023/09/29 09:54:54;;;;;;;4.07;1.70;;;18.80;69.90;;;;;;5043311;28;20041;-74
2023/09/29 09:57:34;;;;;;;7.15;1.73;;;19.10;69.30;;;;;;5062111;28;20135;-73
2023/09/29 10:00:07;;;;;;;10.52;1.85;;;19.30;67.90;;;;;;5047132;28;20097;-74
2023/09/29 10:02:39;;;;;;;3.85;1.67;;;19.40;68.10;;;;;;5054592;28;20198;-73
2023/09/29 10:05:12;;;;;;;5.95;1.85;;;19.30;64.00;;;;;;5049958;28;20078;-73
2023/09/29 10:07:47;;;;;;;5.63;1.92;;;19.20;62.00;;;;;;5048959;28;20517;-73
2023/09/29 10:10:24;;;;;;;7.43;2.17;;;19.00;64.00;;;;;;5043115;28;20690;-73
2023/09/29 10:12:57;;;;;;;6.85;2.10;;;19.10;64.80;;;;;;5062467;28;20034;-73
2023/09/29 10:15:29;;;;;;;5.93;1.88;;;19.10;61.00;;;;;;5042843;28;20040;-73
2023/09/29 10:18:00;;;;;;;6.40;1.80;;;18.90;58.30;;;;;;5058503;28;20040;-73
2023/09/29 10:20:29;;;;;;;6.40;1.80;;;18.80;59.20;;;;;;5046083;28;20146;-73
2023/09/29 10:23:14;;;;;;;5.53;2.10;;;18.90;60.50;;;;;;5056125;28;20074;-73
2023/09/29 10:25:44;;;;;;;3.47;1.80;;;18.90;61.10;;;;;;5047983;28;20071;-73
2023/09/29 10:28:12;;;;;;;5.82;2.28;;;19.00;62.00;;;;;;5055184;28;20052;-74
2023/09/29 10:30:39;;;;;;;6.70;2.30;;;19.20;63.10;;;;;;5046442;28;20314;-74
2023/09/29 10:33:11;;;;;;;4.00;2.28;;;19.40;63.00;;;;;;5064089;28;20066;-74
2023/09/29 10:35:46;;;;;;;5.65;2.42;;;19.60;61.60;;;;;;5041800;28;20037;-74
2023/09/29 10:38:29;;;;;;;7.07;2.67;;;19.50;61.20;;;;;;5061915;28;20755;-74
2023/09/29 10:40:57;;;;;;;13.38;2.70;;;19.20;61.50;;;;;;5044587;28;20062;-72
2023/09/29 10:43:23;;;;;;;5.88;2.35;;;19.30;60.50;;;;;;5057613;28;20024;-75
2023/09/29 10:45:50;;;;;;;5.55;1.77;;;19.30;59.30;;;;;;5045700;28;20036;-74
2023/09/29 10:48:23;;;;;;;11.00;3.05;;;19.50;57.50;;;;;;5049416;28;20028;-74
2023/09/29 10:50:51;;;;;;;4.93;2.45;;;19.70;56.30;;;;;;5047230;28;20407;-74
2023/09/29 10:53:25;;;;;;;6.35;2.50;;;19.90;53.90;;;;;;5056364;28;20415;-74
2023/09/29 10:55:54;;;;;;;7.55;2.53;;;19.90;54.20;;;;;;5047426;28;20517;-74
2023/09/29 10:58:20;;;;;;;12.50;2.55;;;20.00;54.50;;;;;;5059675;28;20061;-73
2023/09/29 11:00:48;;;;;;;8.65;2.58;;;20.00;54.90;;;;;;5053486;28;20044;-74
2023/09/29 11:03:16;;;;;;;7.03;2.70;;;20.10;54.70;;;;;;5055828;28;20036;-73
2023/09/29 11:06:03;;;;;;;9.90;2.50;;;20.20;55.60;;;;;;5053720;28;20044;-74
2023/09/29 11:08:32;;;;;;;6.30;2.45;;;20.20;53.60;;;;;;5057590;28;20060;-73
2023/09/29 11:11:00;;;;;;;8.05;2.10;;;20.20;53.80;;;;;;5045686;28;20028;-73
2023/09/29 11:13:26;;;;;;;7.28;2.20;;;20.20;49.70;;;;;;5054882;28;20040;-73
2023/09/29 11:15:52;;;;;;;6.97;2.00;;;20.30;49.50;;;;;;5052220;28;20075;-73
2023/09/29 11:18:35;;;;;;;6.22;1.80;;;20.40;49.10;;;;;;5046652;28;20040;-74
2023/09/29 11:21:05;;;;;;;8.20;2.05;;;20.60;48.20;;;;;;5057843;28;20028;-73
2023/09/29 11:23:41;;;;;;;7.35;2.22;;;20.90;48.00;;;;;;5044552;28;20024;-73
2023/09/29 11:26:10;;;;;;;6.38;2.00;;;21.10;48.10;;;;;;5064744;28;21041;-73
2023/09/29 11:28:47;;;;;;;4.20;2.08;;;20.90;48.40;;;;;;5044722;28;20042;-73
2023/09/29 11:31:15;;;;;;;5.63;2.22;;;21.00;49.70;;;;;;5062391;28;20037;-74
2023/09/29 11:33:41;;;;;;;7.55;1.80;;;21.20;48.50;;;;;;5042837;28;20044;-75
2023/09/29 11:36:12;;;;;;;7.68;2.47;;;21.10;47.90;;;;;;5052416;28;20212;-74
2023/09/29 11:38:37;;;;;;;7.95;1.90;;;21.20;50.00;;;;;;5040243;28;20050;-74
2023/09/29 11:41:05;;;;;;;7.15;2.17;;;21.20;49.10;;;;;;5052417;28;20736;-75
2023/09/29 11:43:33;;;;;;;7.72;2.03;;;21.10;49.70;;;;;;5030907;28;20041;-74
2023/09/29 11:45:58;;;;;;;8.57;2.33;;;21.10;49.90;;;;;;5051449;28;20218;-74
2023/09/29 11:48:24;;;;;;;4.75;1.88;;;21.10;49.90;;;;;;5032340;28;20536;-73
2023/09/29 11:50:52;;;;;;;6.90;2.03;;;21.00;46.60;;;;;;5048106;28;20668;-74
2023/09/29 11:53:18;;;;;;;6.13;1.70;;;20.80;47.00;;;;;;5046046;28;20412;-75
2023/09/29 11:55:43;;;;;;;5.63;2.10;;;20.80;46.40;;;;;;5055093;28;20379;-74
2023/09/29 11:58:09;;;;;;;6.15;1.80;;;20.80;47.50;;;;;;5044143;28;20041;-74
2023/09/29 12:00:36;;;;;;;5.47;1.55;;;20.70;48.00;;;;;;5061858;28;20025;-74
2023/09/29 12:03:05;;;;;;;10.20;2.15;;;20.70;45.80;;;;;;5047206;28;20028;-71
2023/09/29 12:05:32;;;;;;;8.90;2.33;;;20.60;48.80;;;;;;5062098;28;20796;-71
2023/09/29 12:07:58;;;;;;;7.10;2.28;;;20.60;46.90;;;;;;5051657;28;20459;-73
2023/09/29 12:10:24;;;;;;;5.60;1.75;;;20.60;47.00;;;;;;5056827;28;20036;-74
2023/09/29 12:12:49;;;;;;;7.40;1.83;;;20.80;47.00;;;;;;5059654;28;20060;-73
2023/09/29 12:15:17;;;;;;;8.18;2.10;;;20.90;46.70;;;;;;5042988;28;20564;-74
2023/09/29 12:17:44;;;;;;;8.85;2.30;;;20.90;46.70;;;;;;5057947;28;20079;-74
2023/09/29 12:20:13;;;;;;;8.45;2.00;;;20.70;47.80;;;;;;5054284;28;20048;-73
2023/09/29 12:22:43;;;;;;;7.70;1.80;;;20.50;47.40;;;;;;5062446;28;20071;-74
2023/09/29 12:25:11;;;;;;;8.32;1.92;;;20.60;43.60;;;;;;5049072;28;20064;-75
2023/09/29 12:27:38;;;;;;;9.13;2.85;;;20.90;46.50;;;;;;5064273;28;21139;-73
2023/09/29 12:30:08;;;;;;;8.18;2.03;;;20.90;46.90;;;;;;5049678;28;20383;-74
2023/09/29 12:32:34;;;;;;;7.75;2.00;;;21.10;45.80;;;;;;5066543;28;20728;-72
2023/09/29 12:35:00;;;;;;;7.00;2.22;;;21.00;44.90;;;;;;5048234;28;20488;-74
2023/09/29 12:37:26;;;;;;;7.88;2.20;;;21.10;45.50;;;;;;5059128;28;20052;-75
2023/09/29 12:39:53;;;;;;;9.32;2.10;;;21.10;45.30;;;;;;5052682;28;20024;-74
2023/09/29 12:42:19;;;;;;;8.45;2.45;;;21.20;44.30;;;;;;5063759;28;20112;-75